Time;durP1;ratioP1;P1;durP2;ratioP2;P2;SDS_P1;SDS_P2;PMS_P1;PMS_P2;Temp;Humidity;BMP_temperature;BMP_pressure;BME280_temperature;BME280_humidity;BME280_pressure;Samples;Min_cycle;Max_cycle;Signal;HPM_P1;HPM_P2
2022/02/12 00:00:49;;;;;;;21.98;5.20;;;;;;;3.41;100.00;99618.25;5007330;28;20030;-57
2022/02/12 00:03:15;;;;;;;20.80;5.15;;;;;;;3.14;100.00;99609.25;5008641;28;20079;-57
2022/02/12 00:05:40;;;;;;;24.80;5.57;;;;;;;3.25;100.00;99612.91;5006019;28;20041;-58
2022/02/12 00:08:06;;;;;;;17.35;4.38;;;;;;;4.03;100.00;99612.16;5010125;28;20037;-57
2022/02/12 00:10:31;;;;;;;25.50;5.38;;;;;;;3.75;100.00;99608.38;5007352;28;20041;-57
2022/02/12 00:12:57;;;;;;;20.67;5.05;;;;;;;3.78;100.00;99598.09;5008778;28;20518;-59
2022/02/12 00:15:23;;;;;;;23.52;5.30;;;;;;;3.58;100.00;99598.69;5009016;28;20177;-59
2022/02/12 00:17:48;;;;;;;24.23;5.20;;;;;;;3.43;100.00;99599.34;5007572;28;20029;-58
2022/02/12 00:20:15;;;;;;;19.02;5.25;;;;;;;3.26;100.00;99598.28;5008520;28;20108;-57
2022/02/12 00:22:41;;;;;;;23.27;5.47;;;;;;;3.47;100.00;99589.94;5006860;28;20467;-58
2022/02/12 00:25:08;;;;;;;26.55;5.35;;;;;;;3.60;100.00;99589.28;5009056;28;20099;-57
2022/02/12 00:27:33;;;;;;;20.02;5.30;;;;;;;3.55;100.00;99587.47;5008230;28;20021;-57
2022/02/12 00:29:58;;;;;;;23.83;5.35;;;;;;;2.98;100.00;99585.00;5007580;28;20047;-58
2022/02/12 00:32:24;;;;;;;21.00;5.30;;;;;;;3.40;100.00;99582.97;5006451;28;20038;-58
2022/02/12 00:34:51;;;;;;;27.98;5.38;;;;;;;3.02;100.00;99580.75;5005679;28;20718;-59
2022/02/12 00:37:17;;;;;;;25.55;6.13;;;;;;;3.18;100.00;99585.28;5005884;28;20565;-57
2022/02/12 00:39:43;;;;;;;17.02;5.07;;;;;;;2.79;100.00;99582.97;5007899;28;20517;-59
2022/02/12 00:42:08;;;;;;;22.80;5.53;;;;;;;2.72;100.00;99575.97;5008015;28;20064;-57
2022/02/12 00:44:34;;;;;;;19.30;5.38;;;;;;;2.36;100.00;99575.41;5007227;28;20099;-57
2022/02/12 00:46:59;;;;;;;25.13;5.45;;;;;;;2.87;100.00;99566.78;5006853;28;20399;-58
2022/02/12 00:49:25;;;;;;;27.55;5.93;;;;;;;2.70;100.00;99568.22;5006376;28;20060;-58
2022/02/12 00:51:51;;;;;;;21.08;5.80;;;;;;;2.38;100.00;99575.44;5007379;28;20045;-58
2022/02/12 00:54:17;;;;;;;24.23;6.00;;;;;;;2.48;100.00;99567.88;5007169;28;20026;-57
2022/02/12 00:56:43;;;;;;;18.55;5.10;;;;;;;2.68;100.00;99570.78;5008472;28;20103;-58
2022/02/12 00:59:08;;;;;;;16.67;5.28;;;;;;;2.28;100.00;99566.69;5007339;28;20855;-59
2022/02/12 01:01:34;;;;;;;19.13;4.88;;;;;;;2.29;100.00;99565.81;5008485;28;20041;-58
2022/02/12 01:04:01;;;;;;;19.23;5.60;;;;;;;1.73;100.00;99558.81;5007179;28;20080;-57
2022/02/12 01:06:27;;;;;;;16.33;4.68;;;;;;;1.68;100.00;99561.28;5011287;28;20038;-57
2022/02/12 01:08:52;;;;;;;19.75;5.30;;;;;;;1.51;100.00;99557.50;5013232;28;20045;-58
2022/02/12 01:11:17;;;;;;;14.95;4.38;;;;;;;2.14;100.00;99550.97;5012055;28;20042;-58
2022/02/12 01:13:43;;;;;;;16.67;4.68;;;;;;;2.11;100.00;99546.66;5014515;28;20056;-58
2022/02/12 01:16:09;;;;;;;24.90;5.30;;;;;;;2.11;100.00;99556.97;5009666;28;20046;-58
2022/02/12 01:18:35;;;;;;;23.13;5.13;;;;;;;2.02;100.00;99546.50;5013394;28;20022;-58
2022/02/12 01:21:00;;;;;;;17.88;4.72;;;;;;;1.53;100.00;99550.69;5010965;28;20045;-57
2022/02/12 01:23:26;;;;;;;18.58;4.53;;;;;;;1.53;100.00;99554.13;5010784;28;20113;-58
2022/02/12 01:25:52;;;;;;;16.02;4.38;;;;;;;1.96;100.00;99548.06;5010981;28;20053;-58
2022/02/12 01:28:18;;;;;;;19.20;4.63;;;;;;;2.00;100.00;99543.00;5010663;28;20021;-59
2022/02/12 01:30:44;;;;;;;15.95;4.22;;;;;;;2.18;100.00;99542.47;5011271;28;20045;-57
2022/02/12 01:33:10;;;;;;;19.50;4.85;;;;;;;1.77;100.00;99544.31;5011720;28;20026;-57
2022/02/12 01:35:36;;;;;;;15.90;4.10;;;;;;;1.85;100.00;99542.72;5011205;28;20065;-57
2022/02/12 01:38:01;;;;;;;24.85;5.30;;;;;;;1.72;100.00;99551.91;5013590;28;20053;-58
2022/02/12 01:40:27;;;;;;;20.75;4.95;;;;;;;1.90;100.00;99547.13;5012248;28;20096;-58
2022/02/12 01:42:53;;;;;;;20.23;5.45;;;;;;;1.70;100.00;99544.16;5010764;28;20042;-57
2022/02/12 01:45:18;;;;;;;24.45;5.85;;;;;;;1.39;100.00;99545.25;5009853;28;20037;-58
2022/02/12 01:47:44;;;;;;;17.95;5.38;;;;;;;1.13;100.00;99544.72;5009574;28;20032;-58
2022/02/12 01:50:09;;;;;;;21.63;5.57;;;;;;;1.38;100.00;99540.06;5010928;28;20917;-59
2022/02/12 01:52:37;;;;;;;20.70;5.10;;;;;;;1.46;100.00;99544.53;5012817;28;20399;-57
2022/02/12 01:55:05;;;;;;;20.38;5.28;;;;;;;1.17;100.00;99548.22;5018177;28;20103;-55
2022/02/12 01:57:31;;;;;;;23.98;5.30;;;;;;;1.22;100.00;99550.06;5009876;28;20037;-58
2022/02/12 01:59:56;;;;;;;22.38;5.22;;;;;;;1.11;100.00;99541.25;5011769;28;20034;-57
2022/02/12 02:02:22;;;;;;;19.40;4.50;;;;;;;1.53;100.00;99541.25;5009884;28;20033;-58
2022/02/12 02:04:48;;;;;;;18.33;4.90;;;;;;;1.22;100.00;99534.63;5009870;28;20121;-57
2022/02/12 02:07:13;;;;;;;22.63;5.90;;;;;;;1.10;100.00;99542.97;5008421;28;20045;-58
2022/02/12 02:09:39;;;;;;;21.63;5.50;;;;;;;1.04;100.00;99542.81;5008918;28;20053;-58
2022/02/12 02:12:05;;;;;;;20.88;5.93;;;;;;;0.84;100.00;99547.50;5009252;28;20100;-57
2022/02/12 02:14:35;;;;;;;16.70;4.95;;;;;;;1.03;100.00;99545.34;5008823;28;20505;-58
2022/02/12 02:17:01;;;;;;;15.02;4.07;;;;;;;1.12;100.00;99550.69;5008207;28;20924;-58
2022/02/12 02:19:26;;;;;;;17.63;4.70;;;;;;;1.12;100.00;99550.69;5011651;28;20024;-57
2022/02/12 02:21:55;;;;;;;25.23;6.15;;;;;;;1.04;100.00;99545.38;5009348;28;20088;-57
2022/02/12 02:24:20;;;;;;;16.50;4.47;;;;;;;1.26;100.00;99539.00;5009931;28;20028;-57
2022/02/12 02:26:46;;;;;;;24.70;5.65;;;;;;;0.67;100.00;99534.25;5007738;28;20042;-57
2022/02/12 02:29:11;;;;;;;39.00;5.13;;;;;;;0.67;100.00;99539.41;5012415;28;20116;-58
2022/02/12 02:31:37;;;;;;;12.05;3.67;;;;;;;0.87;100.00;99542.44;5009347;28;20076;-58
2022/02/12 02:34:10;;;;;;;18.67;4.40;;;;;;;1.03;100.00;99533.38;5008580;28;20022;-56
2022/02/12 02:36:36;;;;;;;19.00;4.72;;;;;;;0.97;100.00;99538.34;5010771;28;20153;-57
2022/02/12 02:39:02;;;;;;;20.35;4.28;;;;;;;0.88;100.00;99548.44;5010843;28;20814;-57
2022/02/12 02:41:28;;;;;;;15.50;4.10;;;;;;;0.98;100.00;99544.38;5009397;28;20069;-57
2022/02/12 02:43:53;;;;;;;17.13;4.50;;;;;;;0.78;100.00;99544.78;5011929;28;20053;-56
2022/02/12 02:46:19;;;;;;;16.45;4.72;;;;;;;0.79;100.00;99549.13;5011112;28;20037;-58
2022/02/12 02:48:44;;;;;;;17.83;4.45;;;;;;;0.98;100.00;99552.97;5008228;28;20443;-58
2022/02/12 02:56:38;;;;;;;18.15;4.70;;;;;;;0.80;100.00;99543.13;5007965;28;20048;-57
2022/02/12 02:59:03;;;;;;;19.92;5.05;;;;;;;0.61;100.00;99543.50;5009670;28;20168;-58
2022/02/12 03:01:29;;;;;;;17.42;5.03;;;;;;;0.63;100.00;99544.44;5008024;28;20037;-57
2022/02/12 03:03:55;;;;;;;18.67;4.55;;;;;;;0.84;100.00;99546.63;5010379;28;20087;-58
2022/02/12 03:06:24;;;;;;;21.17;5.25;;;;;;;0.80;100.00;99540.56;5008783;28;20037;-57
2022/02/12 03:08:50;;;;;;;20.98;5.10;;;;;;;0.36;100.00;99548.94;5008147;28;20162;-58
2022/02/12 03:11:16;;;;;;;17.90;4.43;;;;;;;0.50;100.00;99553.56;5009427;28;20431;-58
2022/02/12 03:13:43;;;;;;;21.48;5.22;;;;;;;0.68;100.00;99541.16;5010770;28;20033;-56
2022/02/12 03:16:09;;;;;;;19.48;5.00;;;;;;;0.65;100.00;99555.63;5008744;28;20476;-57
2022/02/12 03:18:36;;;;;;;17.73;4.90;;;;;;;0.61;100.00;99553.78;5013285;28;20030;-57
2022/02/12 03:21:01;;;;;;;17.50;4.93;;;;;;;0.52;100.00;99550.19;5010066;28;20906;-58
2022/02/12 03:23:26;;;;;;;16.40;3.92;;;;;;;0.75;100.00;99553.31;5009269;28;20029;-59
2022/02/12 03:25:52;;;;;;;17.00;4.38;;;;;;;0.45;100.00;99556.00;5008648;28;20077;-57
2022/02/12 03:28:17;;;;;;;17.55;4.72;;;;;;;0.61;100.00;99553.78;5006746;28;20100;-57
2022/02/12 03:30:48;;;;;;;21.73;5.13;;;;;;;0.68;100.00;99551.44;5008383;28;20034;-56
2022/02/12 03:33:14;;;;;;;25.55;5.85;;;;;;;0.74;100.00;99553.28;5016186;28;20454;-57
2022/02/12 03:35:40;;;;;;;20.25;5.47;;;;;;;0.55;100.00;99563.09;5010181;28;20147;-57
2022/02/12 03:38:11;;;;;;;23.98;5.93;;;;;;;0.61;100.00;99551.22;5011351;28;20053;-57
2022/02/12 03:40:39;;;;;;;20.45;4.88;;;;;;;0.55;100.00;99552.84;5008276;28;20105;-60
2022/02/12 03:43:05;;;;;;;15.75;4.50;;;;;;;0.65;100.00;99551.34;5008854;28;20049;-58
2022/02/12 03:45:31;;;;;;;18.27;5.00;;;;;;;0.87;100.00;99547.56;5006511;28;20131;-59
2022/02/12 03:47:56;;;;;;;14.48;3.75;;;;;;;0.90;100.00;99547.66;5007095;28;20046;-59
2022/02/12 03:50:22;;;;;;;18.25;5.00;;;;;;;0.87;100.00;99557.00;5006946;28;20146;-58
2022/02/12 03:52:49;;;;;;;24.83;5.43;;;;;;;0.50;100.00;99558.69;5006828;28;20089;-59
2022/02/12 03:55:15;;;;;;;20.42;5.22;;;;;;;0.38;100.00;99562.66;5008128;28;20032;-59
2022/02/12 03:57:41;;;;;;;21.55;5.25;;;;;;;0.32;100.00;99559.09;5006008;28;20022;-58
2022/02/12 04:00:11;;;;;;;18.38;5.15;;;;;;;0.14;100.00;99557.78;5010254;28;20024;-58
2022/02/12 04:02:37;;;;;;;28.30;8.52;;;;;;;-0.06;100.00;99562.38;5007922;28;20045;-58
2022/02/12 04:05:04;;;;;;;31.20;8.88;;;;;;;0.29;100.00;99562.44;5007286;28;20029;-57
2022/02/12 04:07:29;;;;;;;28.45;8.32;;;;;;;0.16;100.00;99551.00;5008068;28;20057;-57
2022/02/12 04:09:54;;;;;;;21.30;5.63;;;;;;;0.22;100.00;99557.13;5005621;28;20109;-57
2022/02/12 04:12:20;;;;;;;21.75;5.82;;;;;;;0.21;100.00;99553.69;5007574;28;20038;-57
2022/02/12 04:14:45;;;;;;;21.20;6.30;;;;;;;-0.21;100.00;99555.16;5007336;28;20090;-57
2022/02/12 04:17:10;;;;;;;24.48;5.68;;;;;;;0.11;100.00;99546.56;5008531;28;20042;-57
2022/02/12 04:19:36;;;;;;;16.58;5.10;;;;;;;0.23;100.00;99551.16;5009175;28;20048;-58
2022/02/12 04:22:01;;;;;;;20.73;6.25;;;;;;;0.14;100.00;99551.78;5005978;28;20613;-57
2022/02/12 04:24:26;;;;;;;25.27;6.03;;;;;;;0.22;100.00;99544.28;5010199;28;20103;-57
2022/02/12 04:26:52;;;;;;;18.58;4.90;;;;;;;0.23;100.00;99541.75;5007933;28;20045;-56
2022/02/12 04:29:17;;;;;;;17.27;4.93;;;;;;;0.43;100.00;99539.69;5008644;28;20033;-56
2022/02/12 04:31:42;;;;;;;25.88;5.72;;;;;;;0.33;100.00;99537.72;5009212;28;20053;-58
2022/02/12 04:34:08;;;;;;;17.52;4.20;;;;;;;0.45;100.00;99525.19;5009022;28;20037;-57
2022/02/12 04:36:33;;;;;;;20.30;4.65;;;;;;;0.38;100.00;99520.72;5006714;28;20091;-57
2022/02/12 04:38:58;;;;;;;23.95;5.97;;;;;;;0.32;100.00;99520.59;5008778;28;20037;-58
2022/02/12 04:41:24;;;;;;;28.13;6.60;;;;;;;0.30;100.00;99518.00;5006533;28;20033;-57
2022/02/12 04:43:50;;;;;;;21.20;5.57;;;;;;;0.00;100.00;99518.09;5010017;28;20520;-56
2022/02/12 04:46:15;;;;;;;19.02;5.05;;;;;;;0.27;100.00;99517.03;5004889;28;20073;-57
2022/02/12 04:48:41;;;;;;;21.23;5.75;;;;;;;-0.19;100.00;99534.69;5008358;28;20057;-58
2022/02/12 04:51:06;;;;;;;17.38;4.65;;;;;;;0.33;100.00;99532.59;5007797;28;20072;-58
2022/02/12 04:53:31;;;;;;;22.42;5.45;;;;;;;0.17;100.00;99529.66;5006235;28;20029;-57
2022/02/12 04:55:57;;;;;;;22.38;5.72;;;;;;;-0.08;100.00;99519.59;5006199;28;20041;-57
2022/02/12 04:58:22;;;;;;;14.43;4.75;;;;;;;0.32;100.00;99525.72;5009072;28;20030;-57
2022/02/12 05:00:47;;;;;;;23.65;5.90;;;;;;;0.14;100.00;99526.13;5009174;28;20124;-56
2022/02/12 05:03:13;;;;;;;22.85;5.88;;;;;;;-0.35;100.00;99527.41;5008902;28;20115;-57
2022/02/12 05:05:38;;;;;;;20.83;5.68;;;;;;;-0.61;100.00;99527.56;5005653;28;20042;-58
2022/02/12 05:08:04;;;;;;;19.05;4.47;;;;;;;-0.02;100.00;99532.56;5006658;28;20141;-57
2022/02/12 05:10:29;;;;;;;20.80;5.60;;;;;;;0.01;100.00;99524.94;5007939;28;20168;-58
2022/02/12 05:12:54;;;;;;;23.73;5.47;;;;;;;-0.55;100.00;99531.97;5007402;28;20431;-58
2022/02/12 05:15:20;;;;;;;17.08;4.43;;;;;;;-0.12;100.00;99525.47;5006060;28;20486;-57
2022/02/12 05:17:45;;;;;;;24.05;5.43;;;;;;;-0.14;100.00;99525.44;5007742;28;20034;-57
2022/02/12 05:20:11;;;;;;;20.58;5.40;;;;;;;-0.42;100.00;99521.25;5005908;28;20025;-57
2022/02/12 05:22:36;;;;;;;26.48;5.35;;;;;;;-0.31;100.00;99522.41;5007460;28;20025;-58
2022/02/12 05:25:02;;;;;;;21.35;4.82;;;;;;;-0.17;100.00;99515.06;5005437;28;20028;-57
2022/02/12 05:27:28;;;;;;;17.88;4.40;;;;;;;0.01;100.00;99514.69;5007123;28;20048;-57
2022/02/12 05:29:54;;;;;;;24.77;6.32;;;;;;;-0.54;100.00;99503.81;5006886;28;20030;-58
2022/02/12 05:32:19;;;;;;;17.40;4.57;;;;;;;-0.04;100.00;99503.44;5006513;28;20685;-56
2022/02/12 05:34:44;;;;;;;21.25;4.82;;;;;;;-0.10;100.00;99505.84;5008677;28;20582;-57
2022/02/12 05:37:10;;;;;;;23.48;5.30;;;;;;;-0.06;100.00;99503.38;5006836;28;20764;-58
2022/02/12 05:39:35;;;;;;;20.55;5.28;;;;;;;-0.16;100.00;99496.31;5007405;28;20059;-56
2022/02/12 05:42:01;;;;;;;22.27;5.28;;;;;;;-0.27;100.00;99501.16;5008064;28;20133;-57
2022/02/12 05:44:26;;;;;;;17.45;4.45;;;;;;;-0.08;100.00;99492.22;5004673;28;20034;-57
2022/02/12 05:46:51;;;;;;;18.75;4.53;;;;;;;0.02;100.00;99490.78;5005926;28;20900;-57
2022/02/12 05:49:17;;;;;;;32.83;6.80;;;;;;;-0.02;100.00;99483.81;5006394;28;20037;-56
2022/02/12 05:51:42;;;;;;;20.70;5.32;;;;;;;0.00;100.00;99487.31;5008695;28;20176;-59
2022/02/12 05:54:07;;;;;;;19.30;5.60;;;;;;;0.06;100.00;99484.91;5010542;28;20030;-58
2022/02/12 05:56:34;;;;;;;19.70;5.40;;;;;;;0.16;100.00;99484.28;5009520;28;20050;-57
2022/02/12 05:59:01;;;;;;;17.48;4.60;;;;;;;0.06;100.00;99478.91;5011684;28;20030;-58
2022/02/12 06:01:26;;;;;;;19.45;5.78;;;;;;;-0.37;100.00;99477.78;5010110;28;20149;-58
2022/02/12 06:03:52;;;;;;;20.67;5.05;;;;;;;0.17;100.00;99480.88;5011195;28;20053;-59
2022/02/12 06:06:18;;;;;;;17.73;5.35;;;;;;;-0.72;100.00;99476.00;5009804;28;20045;-57
2022/02/12 06:08:44;;;;;;;24.73;5.95;;;;;;;-0.50;100.00;99474.03;5011994;28;20099;-58
2022/02/12 06:11:09;;;;;;;18.05;4.63;;;;;;;-0.13;100.00;99467.28;5010267;28;20041;-58
2022/02/12 06:13:34;;;;;;;27.58;7.55;;;;;;;-0.13;100.00;99465.63;5009212;28;20060;-56
2022/02/12 06:16:00;;;;;;;24.38;7.43;;;;;;;-0.15;100.00;99471.50;5010536;28;20088;-58
2022/02/12 06:18:25;;;;;;;23.88;6.40;;;;;;;-0.32;100.00;99469.38;5011402;28;20095;-58
2022/02/12 06:20:50;;;;;;;21.08;5.45;;;;;;;-0.10;100.00;99472.50;5009621;28;20195;-57
2022/02/12 06:23:19;;;;;;;21.58;6.15;;;;;;;0.04;100.00;99466.03;5011304;28;20021;-57
2022/02/12 06:25:44;;;;;;;18.20;4.93;;;;;;;-0.05;100.00;99471.78;5010609;28;20034;-57
2022/02/12 06:28:10;;;;;;;17.05;4.68;;;;;;;0.02;100.00;99464.25;5009535;28;20029;-59
2022/02/12 06:30:35;;;;;;;27.15;6.80;;;;;;;-0.35;100.00;99471.88;5007789;28;20044;-58
2022/02/12 06:33:00;;;;;;;24.13;6.40;;;;;;;-0.83;100.00;99472.25;5010545;28;20028;-59
2022/02/12 06:35:27;;;;;;;16.88;5.45;;;;;;;-0.46;100.00;99465.59;5007958;28;20072;-58
2022/02/12 06:37:53;;;;;;;17.65;5.13;;;;;;;-0.11;100.00;99471.66;5009812;28;20049;-57
2022/02/12 06:40:18;;;;;;;17.42;4.53;;;;;;;0.09;100.00;99466.13;5010484;28;20486;-57
2022/02/12 06:42:44;;;;;;;21.25;5.55;;;;;;;-0.04;100.00;99464.97;5010752;28;20022;-58
2022/02/12 06:45:10;;;;;;;16.85;4.63;;;;;;;0.26;100.00;99463.97;5010109;28;20568;-58
2022/02/12 06:47:37;;;;;;;21.10;5.38;;;;;;;0.23;100.00;99463.91;5010230;28;20021;-58
2022/02/12 06:50:03;;;;;;;21.88;6.20;;;;;;;-0.44;100.00;99466.47;5009481;28;20026;-57
2022/02/12 06:52:29;;;;;;;21.10;6.03;;;;;;;-0.21;100.00;99467.09;5008177;28;20050;-58
2022/02/12 06:54:56;;;;;;;22.10;5.78;;;;;;;-0.41;100.00;99470.00;5007262;28;20092;-59
2022/02/12 06:57:21;;;;;;;24.02;6.25;;;;;;;0.07;100.00;99472.94;5009655;28;20041;-57
2022/02/12 06:59:46;;;;;;;21.70;6.00;;;;;;;0.29;100.00;99464.03;5011444;28;20034;-59
2022/02/12 07:02:12;;;;;;;23.75;7.32;;;;;;;0.41;100.00;99469.47;5008592;28;20194;-58
2022/02/12 07:04:37;;;;;;;29.25;8.00;;;;;;;0.36;100.00;99471.91;5010315;28;20030;-58
2022/02/12 07:07:03;;;;;;;29.35;8.18;;;;;;;0.49;100.00;99465.38;5006123;28;20041;-57
2022/02/12 07:09:28;;;;;;;25.85;7.95;;;;;;;0.65;100.00;99473.44;5010779;28;20101;-58
2022/02/12 07:11:53;;;;;;;19.27;6.43;;;;;;;0.52;100.00;99473.16;5009135;28;20038;-58
2022/02/12 07:14:19;;;;;;;24.75;7.65;;;;;;;0.88;100.00;99471.34;5009627;28;20037;-57
2022/02/12 07:16:44;;;;;;;22.58;7.63;;;;;;;0.94;100.00;99469.81;5009735;28;20072;-58
2022/02/12 07:19:10;;;;;;;22.58;6.72;;;;;;;1.56;100.00;99473.56;5009433;28;20550;-59
2022/02/12 07:21:35;;;;;;;25.33;7.05;;;;;;;1.23;100.00;99468.66;5009219;28;20544;-59
2022/02/12 07:24:01;;;;;;;25.42;6.60;;;;;;;1.34;100.00;99467.16;5009605;28;20025;-59
2022/02/12 07:26:27;;;;;;;21.75;6.78;;;;;;;1.44;100.00;99463.06;5008019;28;20091;-58
2022/02/12 07:28:53;;;;;;;22.67;6.72;;;;;;;1.61;100.00;99461.69;5011899;28;20033;-58
2022/02/12 07:31:18;;;;;;;23.15;7.13;;;;;;;2.28;100.00;99461.13;5004897;28;20048;-56
2022/02/12 07:33:44;;;;;;;736.38;29.48;;;;;;;2.26;100.00;99473.06;5008142;28;20064;-57
2022/02/12 07:36:11;;;;;;;23.25;6.70;;;;;;;2.66;100.00;99477.13;5008416;28;20037;-57
2022/02/12 07:38:37;;;;;;;22.90;6.88;;;;;;;2.85;100.00;99465.38;5009939;28;20078;-58
2022/02/12 07:41:02;;;;;;;25.20;6.57;;;;;;;3.31;100.00;99469.38;5008634;28;20054;-59
2022/02/12 07:43:27;;;;;;;387.10;20.85;;;;;;;5.16;100.00;99463.97;5008723;28;20013;-58
2022/02/12 07:45:54;;;;;;;164.35;9.32;;;;;;;5.58;100.00;99464.97;5007459;28;20041;-58
2022/02/12 07:48:20;;;;;;;17.38;5.30;;;;;;;8.45;100.00;99454.59;5008504;28;20022;-59
2022/02/12 07:50:46;;;;;;;15.48;5.20;;;;;;;9.51;100.00;99456.03;5007933;28;20049;-59
2022/02/12 07:53:14;;;;;;;15.38;5.05;;;;;;;10.38;100.00;99453.91;5007509;28;20029;-58
2022/02/12 07:55:42;;;;;;;16.08;4.75;;;;;;;11.06;100.00;99454.38;5009120;28;20037;-58
2022/02/12 07:58:09;;;;;;;18.73;4.80;;;;;;;9.32;100.00;99450.22;5012482;28;20677;-58
2022/02/12 08:00:35;;;;;;;14.18;5.13;;;;;;;11.73;81.90;99439.91;5008023;28;20042;-60
2022/02/12 08:03:00;;;;;;;12.93;4.70;;;;;;;12.64;70.23;99436.84;5009235;28;20029;-57
2022/02/12 08:05:25;;;;;;;14.55;4.70;;;;;;;9.15;96.58;99436.53;5008980;28;20037;-58
2022/02/12 08:07:51;;;;;;;9.75;3.90;;;;;;;12.19;79.90;99434.53;5009792;28;20053;-60
2022/02/12 08:13:20;;;;;;;8.43;4.00;;;;;;;13.79;58.55;99438.81;4943661;28;20047;-59
2022/02/12 08:15:46;;;;;;;11.30;4.45;;;;;;;11.80;68.37;99442.38;4942985;28;20047;-59
2022/02/12 08:18:11;;;;;;;10.90;4.32;;;;;;;10.55;80.57;99437.94;4971764;28;20037;-59
2022/02/12 08:20:36;;;;;;;11.55;4.40;;;;;;;8.71;95.26;99438.75;5007387;28;20033;-60
2022/02/12 08:23:02;;;;;;;11.60;4.60;;;;;;;7.26;100.00;99441.53;5007134;28;20052;-59
2022/02/12 08:25:28;;;;;;;12.18;4.53;;;;;;;7.01;100.00;99441.63;5007489;28;20034;-59
2022/02/12 08:27:53;;;;;;;12.15;4.53;;;;;;;6.79;100.00;99442.56;5007295;28;20339;-59
2022/02/12 08:30:19;;;;;;;11.70;4.35;;;;;;;6.40;100.00;99431.41;5009049;28;20018;-60
2022/02/12 08:32:44;;;;;;;19.05;5.15;;;;;;;6.42;100.00;99434.88;5007690;28;20068;-60
2022/02/12 08:35:14;;;;;;;11.48;4.10;;;;;;;6.72;100.00;99439.97;5009750;28;20056;-58
2022/02/12 08:37:45;;;;;;;12.77;4.93;;;;;;;6.32;100.00;99428.81;5009425;28;20037;-59
2022/02/12 08:40:15;;;;;;;12.85;4.25;;;;;;;5.87;100.00;99425.34;5009126;28;20018;-60
2022/02/12 08:42:41;;;;;;;16.42;4.63;;;;;;;5.82;100.00;99427.91;5006362;28;20072;-59
2022/02/12 08:45:09;;;;;;;14.18;4.65;;;;;;;5.84;100.00;99423.59;5008114;28;20752;-60
2022/02/12 08:47:35;;;;;;;14.75;4.32;;;;;;;5.86;100.00;99424.44;5009086;28;20842;-58
2022/02/12 08:50:00;;;;;;;15.18;4.47;;;;;;;5.45;100.00;99416.63;5007634;28;20029;-60
2022/02/12 08:52:26;;;;;;;14.10;4.13;;;;;;;5.38;100.00;99426.09;5008476;28;20618;-59
2022/02/12 08:54:52;;;;;;;16.60;4.32;;;;;;;4.85;100.00;99424.16;5007218;28;20124;-58
2022/02/12 08:57:17;;;;;;;13.13;4.22;;;;;;;5.01;100.00;99411.31;5007676;28;20048;-59
2022/02/12 08:59:42;;;;;;;13.68;4.20;;;;;;;5.27;100.00;99414.88;5008198;28;20025;-59
2022/02/12 09:02:09;;;;;;;14.15;3.90;;;;;;;5.42;100.00;99417.47;5008354;28;20040;-58
2022/02/12 09:04:35;;;;;;;13.35;4.20;;;;;;;5.30;100.00;99420.06;5009743;28;20431;-58
2022/02/12 09:07:00;;;;;;;17.23;4.80;;;;;;;5.18;100.00;99419.16;5014681;28;20042;-59
2022/02/12 09:09:25;;;;;;;16.73;4.60;;;;;;;4.75;100.00;99413.78;5008751;28;20840;-57
2022/02/12 09:11:52;;;;;;;12.18;3.97;;;;;;;4.38;100.00;99417.88;5005845;28;20062;-59
2022/02/12 09:14:17;;;;;;;15.32;4.28;;;;;;;5.55;100.00;99408.03;5007465;28;20030;-59
2022/02/12 09:16:43;;;;;;;14.25;4.30;;;;;;;5.47;100.00;99408.00;5005332;28;20576;-60
2022/02/12 09:19:09;;;;;;;13.57;4.40;;;;;;;5.17;100.00;99401.03;5007004;28;20025;-58
2022/02/12 09:21:35;;;;;;;14.00;3.63;;;;;;;5.35;100.00;99400.25;5007367;28;20030;-59
2022/02/12 09:24:01;;;;;;;11.55;3.25;;;;;;;5.59;100.00;99409.78;5007723;28;20018;-58
2022/02/12 09:26:30;;;;;;;11.95;3.40;;;;;;;5.63;100.00;99411.50;5007046;28;20565;-58
2022/02/12 09:28:57;;;;;;;19.60;4.05;;;;;;;5.32;100.00;99400.22;5011313;28;20029;-58
2022/02/12 09:31:22;;;;;;;12.82;3.75;;;;;;;5.82;100.00;99406.34;5010983;28;20037;-58
2022/02/12 09:33:48;;;;;;;12.20;3.72;;;;;;;5.86;100.00;99401.16;5012853;28;20021;-58
2022/02/12 09:36:13;;;;;;;14.25;3.72;;;;;;;6.12;100.00;99400.31;5010372;28;20182;-58
2022/02/12 09:38:38;;;;;;;11.38;3.03;;;;;;;5.30;100.00;99399.34;5011390;28;20038;-58
2022/02/12 09:41:04;;;;;;;13.15;3.88;;;;;;;5.26;100.00;99400.22;5012368;28;20080;-59
2022/02/12 09:43:29;;;;;;;15.07;3.72;;;;;;;5.84;100.00;99405.47;5009508;28;20117;-59
2022/02/12 09:46:04;;;;;;;9.65;3.17;;;;;;;5.81;100.00;99400.31;5009292;28;20044;-59
2022/02/12 09:48:36;;;;;;;11.93;3.63;;;;;;;6.20;100.00;99398.59;5010197;28;20021;-59
2022/02/12 09:51:03;;;;;;;13.63;3.15;;;;;;;5.55;100.00;99398.56;5010051;28;20044;-59
2022/02/12 09:53:30;;;;;;;10.82;3.30;;;;;;;5.89;100.00;99393.38;5010318;28;20037;-59
2022/02/12 09:55:56;;;;;;;15.23;4.10;;;;;;;6.21;100.00;99405.50;5010479;28;20223;-59
2022/02/12 09:58:22;;;;;;;12.45;3.85;;;;;;;5.96;100.00;99395.16;5011516;28;20021;-57
2022/02/12 10:00:48;;;;;;;11.82;3.65;;;;;;;6.54;100.00;99398.53;5008648;28;20056;-59
2022/02/12 10:03:14;;;;;;;15.43;3.90;;;;;;;6.25;100.00;99396.88;5011148;28;20637;-58
2022/02/12 10:05:50;;;;;;;12.60;3.95;;;;;;;6.32;100.00;99393.41;5010600;28;20835;-56
2022/02/12 10:08:17;;;;;;;15.07;3.67;;;;;;;6.69;100.00;99395.91;5009433;28;20033;-57
2022/02/12 10:10:47;;;;;;;12.05;3.78;;;;;;;6.64;100.00;99402.84;5009825;28;20034;-59
2022/02/12 10:13:21;;;;;;;13.43;3.80;;;;;;;7.06;100.00;99395.78;5009176;28;20025;-59
2022/02/12 10:15:56;;;;;;;10.32;3.78;;;;;;;6.67;100.00;99383.81;5008762;28;20099;-57
2022/02/12 10:18:28;;;;;;;12.45;3.97;;;;;;;6.50;100.00;99381.28;5010894;28;20499;-58
2022/02/12 10:20:55;;;;;;;10.63;3.77;;;;;;;6.55;100.00;99371.75;5011109;28;20073;-58
2022/02/12 10:23:27;;;;;;;11.20;4.00;;;;;;;6.95;100.00;99369.03;5009948;28;20021;-57
2022/02/12 10:26:02;;;;;;;12.52;4.70;;;;;;;6.69;100.00;99362.22;5009494;28;20529;-58
2022/02/12 10:28:32;;;;;;;13.38;4.18;;;;;;;6.33;100.00;99366.63;5008785;28;20026;-58
2022/02/12 10:30:58;;;;;;;13.13;4.28;;;;;;;6.34;100.00;99360.56;5006052;28;20085;-59
2022/02/12 10:33:29;;;;;;;11.50;4.05;;;;;;;6.57;100.00;99363.09;5008921;28;20030;-59
2022/02/12 10:36:03;;;;;;;13.80;4.22;;;;;;;7.55;100.00;99345.31;5008302;28;20048;-56
2022/02/12 10:38:33;;;;;;;11.93;4.13;;;;;;;7.04;100.00;99348.22;5011892;28;20092;-58
2022/02/12 10:41:08;;;;;;;14.85;4.60;;;;;;;6.44;100.00;99352.78;5011071;28;20087;-57
2022/02/12 10:43:35;;;;;;;17.02;4.97;;;;;;;6.18;100.00;99351.97;5009141;28;20977;-58
2022/02/12 10:46:01;;;;;;;14.63;4.60;;;;;;;6.57;100.00;99342.34;5010238;28;20049;-58
2022/02/12 10:48:29;;;;;;;15.05;4.38;;;;;;;7.08;100.00;99338.69;5009131;28;20572;-58
2022/02/12 10:51:00;;;;;;;15.05;4.45;;;;;;;7.19;100.00;99330.84;5008955;28;20606;-57
2022/02/12 10:53:26;;;;;;;13.18;3.92;;;;;;;7.56;100.00;99322.81;5008815;28;20026;-58
2022/02/12 10:55:58;;;;;;;13.70;4.30;;;;;;;8.33;100.00;99309.13;5008933;28;20074;-58
2022/02/12 10:58:24;;;;;;;11.25;3.42;;;;;;;8.87;100.00;99307.59;5010651;28;20035;-58
2022/02/12 11:00:50;;;;;;;13.25;3.92;;;;;;;7.90;100.00;99306.06;5007948;28;20042;-59
2022/02/12 11:03:18;;;;;;;13.00;4.10;;;;;;;7.52;100.00;99301.19;5006664;28;20047;-58
2022/02/12 11:05:51;;;;;;;12.50;3.80;;;;;;;7.21;100.00;99298.81;5007139;28;20026;-59
2022/02/12 11:08:20;;;;;;;16.13;4.32;;;;;;;8.39;100.00;99293.44;5009843;28;20029;-58
2022/02/12 11:10:45;;;;;;;12.68;4.10;;;;;;;9.30;95.90;99277.50;5011518;28;20040;-58
2022/02/12 11:13:12;;;;;;;13.90;4.47;;;;;;;9.48;92.77;99273.75;5010649;28;20022;-58
2022/02/12 11:15:38;;;;;;;14.55;4.70;;;;;;;8.88;98.12;99264.25;5015225;28;20839;-58
2022/02/12 11:18:07;;;;;;;11.82;4.00;;;;;;;9.28;90.37;99263.63;5008932;28;20768;-58
2022/02/12 11:20:34;;;;;;;12.57;4.07;;;;;;;9.94;83.13;99261.66;5008573;28;20123;-60
2022/02/12 11:23:18;;;;;;;10.45;3.78;;;;;;;9.99;83.96;99265.91;5010197;28;20021;-59
2022/02/12 11:25:44;;;;;;;11.63;3.97;;;;;;;9.63;94.16;99267.41;5007402;28;20037;-59
2022/02/12 11:28:11;;;;;;;13.10;4.00;;;;;;;9.29;92.85;99270.56;5009078;28;20025;-58